This is the latest recevied weather packets stored in our database for station/object CE4ERM-13. If no packets are shown the sender has not sent any weather packets the latest 10 day(s).
| Time | Temp. | Humidity | Pressure | Rain* | Wind** | Luminosity | Snow |
|---|---|---|---|---|---|---|---|
| 1778183024 | 21.11° C | 43% | 1023.1 hPa | - | - | - | - |
| 1778182424 | 21.11° C | 43% | 1031 hPa | - | - | - | - |
| 1778181886 | 25° C | 33% | 1023 hPa | - | - | - | - |
| 1778181823 | 21.11° C | 44% | 1021.7 hPa | - | - | - | - |
| 1778181286 | 25° C | 33% | 1022.5 hPa | - | - | - | - |
| 1778181223 | 21.11° C | 44% | 1024.1 hPa | - | - | - | - |
| 1778180686 | 25° C | 32% | 1025.1 hPa | - | - | - | - |
| 1778180623 | 21.11° C | 43% | 1023 hPa | - | - | - | - |
| 1778180085 | 25.56° C | 33% | 1024.7 hPa | - | - | - | - |
| 1778179564 | 21.11° C | 43% | 1023.9 hPa | - | - | - | - |
| 1778179422 | 21.11° C | 43% | 1023.9 hPa | - | - | - | - |
| 1778178883 | 26.11° C | 31% | 1023.9 hPa | - | - | - | - |
| 1778178822 | 21.11° C | 43% | 1025.3 hPa | - | - | - | - |
| 1778178283 | 27.22° C | 29% | 1023.3 hPa | - | - | - | - |
| 1778178221 | 21.11° C | 43% | 1023.5 hPa | - | - | - | - |
| 1778177682 | 27.22° C | 28% | 1022.8 hPa | - | - | - | - |
| 1778177405 | 27.22° C | 29% | 1022 hPa | - | - | - | - |
| 1778177082 | 27.22° C | 29% | 1022 hPa | - | - | - | - |
| 1778176482 | 27.22° C | 29% | 1022.8 hPa | - | - | - | - |
| 1778176420 | 20.56° C | 43% | 1036.5 hPa | - | - | - | - |
| 1778175882 | 26.11° C | 30% | 1023.9 hPa | - | - | - | - |
| 1778175282 | 27.22° C | 30% | 1023.4 hPa | - | - | - | - |
| 1778175220 | 20° C | 43% | 1023.6 hPa | - | - | - | - |
| 1778174682 | 25.56° C | 32% | 1024.9 hPa | - | - | - | - |
| 1778174620 | 20° C | 44% | 1025 hPa | - | - | - | - |
* Rain since midnight (hover to see other rain measurements)
** Current wind speed in m/s (hover to see current wind gust speed)